createdAt,value
2019-02-28T00:01:02.261Z,9.50
2019-02-28T00:04:05.684Z,9.50
2019-02-28T00:07:09.144Z,9.50
2019-02-28T00:10:12.644Z,9.50
2019-02-28T00:13:16.105Z,9.60
2019-02-28T00:16:19.533Z,9.50
2019-02-28T00:19:23.960Z,9.50
2019-02-28T00:22:28.232Z,9.40
2019-02-28T00:25:31.676Z,9.30
2019-02-28T00:28:35.131Z,9.20
2019-02-28T00:31:38.596Z,9.20
2019-02-28T00:34:42.122Z,9.20
2019-02-28T00:37:45.585Z,9.10
2019-02-28T00:40:49.017Z,9.00
2019-02-28T00:43:52.479Z,8.90
2019-02-28T00:46:55.939Z,8.80
2019-02-28T00:49:59.368Z,8.60
2019-02-28T00:53:02.824Z,8.70
2019-02-28T00:56:06.289Z,8.60
2019-02-28T00:59:09.798Z,8.50
2019-02-28T01:02:13.258Z,8.50
2019-02-28T01:05:16.780Z,8.40
2019-02-28T01:08:22.128Z,8.40
2019-02-28T01:11:25.406Z,8.30
2019-02-28T01:14:28.837Z,8.30
2019-02-28T01:17:32.298Z,8.40
2019-02-28T01:20:35.758Z,8.50
2019-02-28T01:23:39.190Z,8.40
2019-02-28T01:26:43.403Z,8.30
2019-02-28T01:29:47.825Z,8.30
2019-02-28T01:32:51.288Z,8.30
2019-02-28T01:35:54.750Z,8.30
2019-02-28T01:38:58.873Z,8.40
2019-02-28T01:42:02.405Z,8.40
2019-02-28T01:45:09.971Z,8.40
2019-02-28T01:48:13.664Z,8.40
2019-02-28T01:51:17.124Z,8.40
2019-02-28T01:54:27.711Z,8.40
2019-02-28T01:57:31.508Z,8.40
2019-02-28T02:00:34.969Z,8.40
2019-02-28T02:03:40.693Z,8.20
2019-02-28T02:06:43.638Z,8.20
2019-02-28T02:09:47.108Z,8.20
2019-02-28T02:12:51.671Z,8.10
2019-02-28T02:15:55.245Z,8.10
2019-02-28T02:18:58.749Z,8.10
2019-02-28T02:22:02.218Z,8.10
2019-02-28T02:25:06.787Z,8.10
2019-02-28T02:28:10.308Z,8.00
2019-02-28T02:31:13.811Z,7.90
2019-02-28T02:34:17.273Z,7.90
2019-02-28T02:37:20.710Z,7.80
2019-02-28T02:40:24.334Z,7.80
2019-02-28T02:43:27.914Z,7.70
2019-02-28T02:46:31.363Z,7.70
2019-02-28T02:49:34.919Z,7.60
2019-02-28T02:52:38.394Z,7.50
2019-02-28T02:55:41.854Z,7.50
2019-02-28T02:58:45.304Z,7.60
2019-02-28T03:01:48.767Z,7.60
2019-02-28T03:04:57.938Z,7.60
2019-02-28T03:08:00.091Z,7.60
2019-02-28T03:11:02.622Z,7.60
2019-02-28T03:14:06.082Z,7.60
2019-02-28T03:17:11.510Z,7.60
2019-02-28T03:20:15.137Z,7.60
2019-02-28T03:23:18.609Z,7.60
2019-02-28T03:26:22.082Z,7.60
2019-02-28T03:29:25.554Z,7.50
2019-02-28T03:32:39.678Z,7.50
2019-02-28T03:35:42.981Z,7.40
2019-02-28T03:38:39.470Z,7.30
2019-02-28T03:41:42.905Z,7.30
2019-02-28T03:44:46.373Z,7.30
2019-02-28T03:47:49.810Z,7.40
2019-02-28T03:50:55.286Z,7.30
2019-02-28T03:53:58.443Z,7.30
2019-02-28T03:57:01.969Z,7.30
2019-02-28T04:00:22.555Z,7.20
2019-02-28T04:03:26.042Z,7.20
2019-02-28T04:06:29.590Z,7.10
2019-02-28T04:09:33.039Z,7.10
2019-02-28T04:12:45.099Z,7.10
2019-02-28T04:15:49.845Z,7.00
2019-02-28T04:18:46.949Z,7.00
2019-02-28T04:21:50.442Z,7.00
2019-02-28T04:24:53.926Z,6.90
2019-02-28T04:27:57.363Z,7.00
2019-02-28T04:31:00.834Z,7.00
2019-02-28T04:34:04.366Z,7.00
2019-02-28T04:37:08.705Z,7.00
2019-02-28T04:40:13.640Z,7.00
2019-02-28T04:43:17.070Z,6.90
2019-02-28T04:46:20.534Z,7.00
2019-02-28T04:49:24.090Z,7.00
2019-02-28T04:52:27.526Z,7.00
2019-02-28T04:55:30.991Z,6.90
2019-02-28T04:58:34.430Z,7.00
2019-02-28T05:01:37.918Z,7.00
2019-02-28T05:04:41.364Z,7.10
2019-02-28T05:07:44.823Z,7.10
2019-02-28T05:10:48.293Z,7.10
2019-02-28T05:13:51.736Z,7.00
2019-02-28T05:16:55.208Z,7.00
2019-02-28T05:19:58.677Z,6.90
2019-02-28T05:23:02.895Z,6.80
2019-02-28T05:26:06.495Z,6.80
2019-02-28T05:29:11.921Z,6.70
2019-02-28T05:32:15.221Z,6.70
2019-02-28T05:35:18.686Z,6.60
2019-02-28T05:38:22.583Z,6.50
2019-02-28T05:41:26.165Z,6.50
2019-02-28T05:44:29.663Z,6.40
2019-02-28T05:47:33.197Z,6.40
2019-02-28T05:50:36.701Z,6.50
2019-02-28T05:53:41.366Z,6.50
2019-02-28T05:56:45.337Z,6.50
2019-02-28T05:59:48.795Z,6.50
2019-02-28T06:02:54.409Z,6.50
2019-02-28T06:05:57.473Z,6.40
2019-02-28T06:09:00.905Z,6.40
2019-02-28T06:12:06.581Z,6.50
2019-02-28T06:15:12.324Z,6.50
2019-02-28T06:18:15.785Z,6.50
2019-02-28T06:21:19.230Z,6.50
2019-02-28T06:24:22.696Z,6.50
2019-02-28T06:27:26.158Z,6.60
2019-02-28T06:30:29.616Z,6.80
2019-02-28T06:33:33.679Z,6.90
2019-02-28T06:36:37.913Z,7.20
2019-02-28T06:39:41.362Z,7.50
2019-02-28T06:42:46.677Z,7.70
2019-02-28T06:45:50.006Z,7.90
2019-02-28T06:48:53.503Z,8.20
2019-02-28T06:51:56.947Z,8.40
2019-02-28T06:55:00.440Z,8.80
2019-02-28T06:58:03.923Z,9.20
2019-02-28T07:01:07.390Z,9.50
2019-02-28T07:04:11.552Z,9.80
2019-02-28T07:07:16.064Z,10.00
2019-02-28T07:10:19.520Z,10.30
2019-02-28T07:13:22.986Z,10.70
2019-02-28T07:16:26.469Z,10.90
2019-02-28T07:19:29.946Z,11.00
2019-02-28T07:22:33.413Z,11.00
2019-02-28T07:25:36.904Z,11.00
2019-02-28T07:28:40.452Z,10.90
2019-02-28T07:31:44.026Z,10.90
2019-02-28T07:34:47.470Z,10.90
2019-02-28T07:37:54.384Z,11.00
2019-02-28T07:40:56.118Z,11.40
2019-02-28T07:43:59.625Z,11.80
2019-02-28T07:47:03.105Z,12.10
2019-02-28T07:50:10.789Z,12.40
2019-02-28T07:53:14.553Z,12.90
2019-02-28T07:56:18.049Z,13.00
2019-02-28T07:59:42.380Z,13.20
2019-02-28T08:02:45.086Z,13.50
2019-02-28T08:05:48.613Z,13.70
2019-02-28T08:08:52.072Z,13.60
2019-02-28T08:11:56.735Z,13.80
2019-02-28T08:15:00.405Z,13.90
2019-02-28T08:18:05.775Z,13.80
2019-02-28T08:21:09.480Z,13.60
2019-02-28T08:24:13.126Z,13.40
2019-02-28T08:27:16.595Z,13.10
2019-02-28T08:30:28.022Z,12.80
2019-02-28T08:33:31.479Z,12.60
2019-02-28T08:36:35.009Z,12.60
2019-02-28T08:39:41.135Z,12.70
2019-02-28T08:42:43.658Z,12.80
2019-02-28T08:45:47.111Z,12.70
2019-02-28T08:48:50.582Z,12.80
2019-02-28T08:51:54.045Z,13.00
2019-02-28T08:54:59.731Z,13.30
2019-02-28T08:58:06.201Z,13.20
2019-02-28T09:01:07.931Z,13.20
2019-02-28T09:04:11.373Z,13.40
2019-02-28T09:07:15.165Z,13.50
2019-02-28T09:10:26.515Z,13.80
2019-02-28T09:13:29.982Z,13.90
2019-02-28T09:16:33.429Z,13.80
2019-02-28T09:19:36.967Z,13.80
2019-02-28T09:22:40.625Z,13.80
2019-02-28T09:25:44.157Z,13.60
2019-02-28T09:28:48.313Z,13.60
2019-02-28T09:31:51.974Z,13.50
2019-02-28T09:34:55.446Z,13.30
2019-02-28T09:38:00.385Z,13.30
2019-02-28T09:41:04.766Z,13.40
2019-02-28T09:44:08.931Z,13.50
2019-02-28T09:47:12.422Z,13.40
2019-02-28T09:50:22.531Z,13.30
2019-02-28T09:53:26.140Z,13.30
2019-02-28T09:56:29.642Z,13.30
2019-02-28T09:59:37.287Z,13.30
2019-02-28T10:02:40.407Z,13.30
2019-02-28T10:05:43.483Z,13.30
2019-02-28T10:08:47.025Z,13.40
2019-02-28T10:11:50.472Z,13.50
2019-02-28T10:14:53.942Z,13.70
2019-02-28T10:18:00.573Z,13.80
2019-02-28T10:21:02.760Z,13.80
2019-02-28T10:24:06.266Z,14.00
2019-02-28T10:27:09.722Z,14.00
2019-02-28T10:30:31.289Z,14.10
2019-02-28T10:33:29.562Z,14.30
2019-02-28T10:36:33.010Z,14.40
2019-02-28T10:39:36.522Z,14.30
2019-02-28T10:42:40.272Z,14.40
2019-02-28T10:45:46.104Z,14.60
2019-02-28T10:48:50.911Z,14.70
2019-02-28T10:51:54.566Z,14.80
2019-02-28T10:54:58.017Z,14.90
2019-02-28T10:58:01.622Z,14.80
2019-02-28T11:01:08.911Z,15.00
2019-02-28T11:04:12.478Z,15.00
2019-02-28T11:07:15.944Z,14.90
2019-02-28T11:10:19.901Z,14.90
2019-02-28T11:13:23.346Z,14.80
2019-02-28T11:16:26.818Z,15.00
2019-02-28T11:19:30.293Z,15.00
2019-02-28T11:22:36.535Z,14.80
2019-02-28T11:25:39.387Z,14.80
2019-02-28T11:28:42.882Z,14.50
2019-02-28T11:31:46.566Z,14.10
2019-02-28T11:34:50.056Z,13.80
2019-02-28T11:37:53.589Z,13.70
2019-02-28T11:40:57.667Z,13.50
2019-02-28T11:44:01.334Z,13.50
2019-02-28T11:47:04.860Z,13.60
2019-02-28T11:50:10.569Z,13.70
2019-02-28T11:53:14.084Z,13.70
2019-02-28T11:56:17.677Z,13.80
2019-02-28T11:59:24.250Z,13.80
2019-02-28T12:02:33.196Z,13.90
2019-02-28T12:05:36.673Z,14.00
2019-02-28T12:08:41.559Z,14.00
2019-02-28T12:11:45.318Z,13.90
2019-02-28T12:14:48.793Z,13.80
2019-02-28T12:17:52.249Z,13.70
2019-02-28T12:20:58.707Z,13.60
2019-02-28T12:24:00.908Z,13.70
2019-02-28T12:27:04.521Z,13.60
2019-02-28T12:30:21.912Z,13.60
2019-02-28T12:33:24.553Z,13.60
2019-02-28T12:36:27.999Z,13.60
2019-02-28T12:39:33.300Z,13.70
2019-02-28T12:42:48.681Z,13.80
2019-02-28T12:45:53.558Z,13.80
2019-02-28T12:48:57.199Z,13.90
2019-02-28T12:52:00.692Z,14.00
2019-02-28T12:55:06.365Z,14.10
2019-02-28T12:58:09.834Z,14.10
2019-02-28T13:01:13.283Z,14.10
2019-02-28T13:04:16.766Z,14.10
2019-02-28T13:07:20.297Z,14.10
2019-02-28T13:10:27.914Z,14.10
2019-02-28T13:13:30.225Z,14.00
2019-02-28T13:16:33.697Z,13.90
2019-02-28T13:19:37.169Z,13.90
2019-02-28T13:22:42.651Z,14.00
2019-02-28T13:25:46.158Z,14.00
2019-02-28T13:28:49.645Z,13.90
2019-02-28T13:31:53.087Z,13.90
2019-02-28T13:34:56.570Z,13.90
2019-02-28T13:38:00.031Z,13.90
2019-02-28T13:41:03.497Z,13.90
2019-02-28T13:44:06.977Z,13.90
2019-02-28T13:47:10.922Z,13.90
2019-02-28T13:50:17.421Z,13.80
2019-02-28T13:53:23.280Z,13.80
2019-02-28T13:56:28.989Z,13.70
2019-02-28T13:59:31.827Z,13.60
2019-02-28T14:02:36.075Z,13.50
2019-02-28T14:05:41.455Z,13.70
2019-02-28T14:08:46.093Z,13.80
2019-02-28T14:11:51.844Z,13.80
2019-02-28T14:14:55.618Z,14.00
2019-02-28T14:17:59.109Z,13.90
2019-02-28T14:21:03.195Z,13.80
2019-02-28T14:24:07.538Z,13.70
2019-02-28T14:27:11.002Z,13.70
2019-02-28T14:30:15.720Z,13.60
2019-02-28T14:33:19.598Z,13.50
2019-02-28T14:36:24.192Z,13.50
2019-02-28T14:39:27.698Z,13.50
2019-02-28T14:42:31.146Z,13.50
2019-02-28T14:45:39.296Z,13.50
2019-02-28T14:48:42.462Z,13.50
2019-02-28T14:51:45.935Z,13.40
2019-02-28T14:54:49.407Z,13.30
2019-02-28T14:57:52.881Z,13.20
2019-02-28T15:00:56.355Z,13.20
2019-02-28T15:03:59.797Z,13.10
2019-02-28T15:07:04.324Z,13.10
2019-02-28T15:10:13.621Z,13.10
2019-02-28T15:13:17.094Z,13.10
2019-02-28T15:16:21.652Z,13.20
2019-02-28T15:19:25.419Z,13.10
2019-02-28T15:22:29.081Z,13.10
2019-02-28T15:25:32.567Z,13.10
2019-02-28T15:28:36.102Z,13.20
2019-02-28T15:31:40.455Z,13.10
2019-02-28T15:34:44.112Z,13.10
2019-02-28T15:37:47.567Z,13.00
2019-02-28T15:40:51.041Z,13.00
2019-02-28T15:43:54.583Z,12.90
2019-02-28T15:46:58.062Z,12.90
2019-02-28T15:50:01.514Z,12.80
2019-02-28T15:53:05.154Z,12.80
2019-02-28T15:56:13.344Z,12.70
2019-02-28T15:59:14.834Z,12.70
2019-02-28T16:02:19.225Z,12.60
2019-02-28T16:05:23.963Z,12.60
2019-02-28T16:08:28.323Z,12.60
2019-02-28T16:11:32.165Z,12.50
2019-02-28T16:14:35.849Z,12.50
2019-02-28T16:17:39.529Z,12.50
2019-02-28T16:20:42.982Z,12.40
2019-02-28T16:23:46.462Z,12.30
2019-02-28T16:26:49.911Z,12.30
2019-02-28T16:29:55.725Z,12.30
2019-02-28T16:32:58.570Z,12.30
2019-02-28T16:36:02.048Z,12.20
2019-02-28T16:39:06.475Z,12.10
2019-02-28T16:42:11.592Z,12.10
2019-02-28T16:45:21.589Z,12.10
2019-02-28T16:48:25.078Z,12.10
2019-02-28T16:51:29.407Z,12.00
2019-02-28T16:54:33.666Z,11.90
2019-02-28T16:57:37.117Z,11.90
2019-02-28T17:00:42.481Z,12.00
2019-02-28T17:03:45.987Z,11.90
2019-02-28T17:06:49.466Z,11.90
2019-02-28T17:09:52.947Z,11.90
2019-02-28T17:13:14.509Z,11.90
2019-02-28T17:16:22.429Z,11.90
2019-02-28T17:19:28.597Z,11.90
2019-02-28T17:22:31.060Z,11.90
2019-02-28T17:25:34.505Z,11.90
2019-02-28T17:28:42.313Z,11.90
2019-02-28T17:31:48.160Z,11.80
2019-02-28T17:34:52.339Z,11.80
2019-02-28T17:37:59.816Z,11.90
2019-02-28T17:41:01.887Z,11.80
2019-02-28T17:44:29.807Z,11.80
2019-02-28T17:47:44.830Z,11.80
2019-02-28T17:50:51.469Z,11.80
2019-02-28T17:54:09.969Z,11.80
2019-02-28T17:57:25.221Z,11.80
2019-02-28T18:00:48.184Z,11.80
2019-02-28T18:03:53.765Z,11.80
2019-02-28T18:07:09.309Z,11.80
2019-02-28T18:10:51.110Z,11.80
2019-02-28T18:14:15.879Z,11.80
2019-02-28T18:17:42.063Z,11.80
2019-02-28T18:20:57.351Z,11.80
2019-02-28T18:24:12.619Z,11.80
2019-02-28T18:27:31.010Z,11.70
2019-02-28T18:30:37.589Z,11.70
2019-02-28T18:33:44.925Z,11.70
2019-02-28T18:36:48.717Z,11.70
2019-02-28T18:39:52.178Z,11.70
2019-02-28T18:42:55.637Z,11.60
2019-02-28T18:45:59.125Z,11.60
2019-02-28T18:49:02.598Z,11.60
2019-02-28T18:52:06.090Z,11.50
2019-02-28T18:55:09.528Z,11.50
2019-02-28T18:58:13.010Z,11.40
2019-02-28T19:01:16.466Z,11.30
2019-02-28T19:04:19.945Z,11.20
2019-02-28T19:07:23.393Z,11.10
2019-02-28T19:10:27.815Z,11.10
2019-02-28T19:13:31.313Z,11.00
2019-02-28T19:16:34.778Z,10.90
2019-02-28T19:19:38.261Z,10.70
2019-02-28T19:22:41.707Z,10.60
2019-02-28T19:25:45.178Z,10.60
2019-02-28T19:28:48.678Z,10.50
2019-02-28T19:31:52.145Z,10.50
2019-02-28T19:34:55.626Z,10.40
2019-02-28T19:37:59.097Z,10.40
2019-02-28T19:41:02.653Z,10.30
2019-02-28T19:44:06.128Z,10.30
2019-02-28T19:47:09.582Z,10.30
2019-02-28T19:50:13.126Z,10.30
2019-02-28T19:53:16.574Z,10.30
2019-02-28T19:56:20.073Z,10.30
2019-02-28T19:59:23.511Z,10.30
2019-02-28T20:02:27.022Z,10.20
2019-02-28T20:05:30.461Z,10.20
2019-02-28T20:08:33.938Z,10.20
2019-02-28T20:11:37.441Z,10.20
2019-02-28T20:14:41.040Z,10.30
2019-02-28T20:17:44.774Z,10.20
2019-02-28T20:20:50.899Z,10.20
2019-02-28T20:23:54.434Z,10.20
2019-02-28T20:26:57.887Z,10.30
2019-02-28T20:30:01.462Z,10.20
2019-02-28T20:33:07.906Z,10.20
2019-02-28T20:36:11.377Z,10.20
2019-02-28T20:39:15.241Z,10.30
2019-02-28T20:42:19.655Z,10.30
2019-02-28T20:45:23.361Z,10.30
2019-02-28T20:48:26.818Z,10.30
2019-02-28T20:51:30.297Z,10.30
2019-02-28T20:54:33.772Z,10.30
2019-02-28T20:57:37.237Z,10.30
2019-02-28T21:00:40.743Z,10.30
2019-02-28T21:03:44.186Z,10.20
2019-02-28T21:06:47.657Z,10.20
2019-02-28T21:09:51.106Z,10.20
2019-02-28T21:12:54.589Z,10.20
2019-02-28T21:15:58.030Z,10.20
2019-02-28T21:19:01.533Z,10.10
2019-02-28T21:22:05.043Z,10.10
2019-02-28T21:25:10.992Z,10.10
2019-02-28T21:28:14.505Z,10.20
2019-02-28T21:31:17.986Z,10.20
2019-02-28T21:34:21.431Z,10.10
2019-02-28T21:37:24.935Z,10.20
2019-02-28T21:40:28.502Z,10.20
2019-02-28T21:43:31.975Z,10.10
2019-02-28T21:46:35.491Z,10.10
2019-02-28T21:49:39.041Z,10.10
2019-02-28T21:52:49.293Z,10.10
2019-02-28T21:55:52.770Z,10.00
2019-02-28T21:58:56.219Z,10.00
2019-02-28T22:01:59.686Z,10.00
2019-02-28T22:05:03.150Z,10.00
2019-02-28T22:08:06.614Z,9.90
2019-02-28T22:11:10.086Z,10.00
2019-02-28T22:14:13.570Z,9.90
2019-02-28T22:17:17.054Z,9.90
2019-02-28T22:20:20.529Z,9.90
2019-02-28T22:23:24.001Z,9.90
2019-02-28T22:26:27.453Z,9.90
2019-02-28T22:29:30.899Z,9.90
2019-02-28T22:32:36.037Z,9.90
2019-02-28T22:35:41.134Z,9.90
2019-02-28T22:38:44.597Z,9.90
2019-02-28T22:41:48.042Z,9.90
2019-02-28T22:44:51.537Z,9.80
2019-02-28T22:47:54.977Z,9.90
2019-02-28T22:50:58.558Z,9.80
2019-02-28T22:54:02.006Z,9.70
2019-02-28T22:57:05.473Z,9.70
2019-02-28T23:00:17.926Z,9.60
2019-02-28T23:03:21.557Z,9.70
2019-02-28T23:06:25.072Z,9.70
2019-02-28T23:09:28.597Z,9.70
2019-02-28T23:12:32.069Z,9.70
2019-02-28T23:15:35.501Z,9.70
2019-02-28T23:18:38.988Z,9.70
2019-02-28T23:21:42.482Z,9.70
2019-02-28T23:24:45.919Z,9.70
2019-02-28T23:27:49.382Z,9.70
2019-02-28T23:30:55.964Z,9.70
2019-02-28T23:34:14.646Z,9.60
2019-02-28T23:37:18.117Z,9.60
2019-02-28T23:40:21.669Z,9.60
2019-02-28T23:43:25.125Z,9.60
2019-02-28T23:46:29.034Z,9.60
2019-02-28T23:49:32.521Z,9.60
2019-02-28T23:52:35.970Z,9.60
2019-02-28T23:55:39.429Z,9.60
2019-02-28T23:58:42.896Z,9.50
